createdAt,value
2023-03-29T00:00:51.747Z,998.91
2023-03-29T00:01:51.697Z,998.90
2023-03-29T00:02:51.778Z,998.93
2023-03-29T00:03:51.656Z,998.92
2023-03-29T00:04:51.512Z,998.93
2023-03-29T00:05:51.445Z,998.87
2023-03-29T00:06:51.352Z,998.84
2023-03-29T00:07:51.340Z,998.88
2023-03-29T00:08:51.251Z,998.92
2023-03-29T00:09:51.194Z,998.88
2023-03-29T00:10:51.122Z,998.84
2023-03-29T00:11:51.097Z,998.90
2023-03-29T00:12:50.996Z,998.84
2023-03-29T00:13:50.919Z,998.82
2023-03-29T00:14:50.878Z,998.85
2023-03-29T00:15:50.825Z,998.85
2023-03-29T00:16:50.799Z,998.80
2023-03-29T00:17:50.736Z,998.73
2023-03-29T00:18:50.622Z,998.75
2023-03-29T00:19:50.580Z,998.71
2023-03-29T00:20:50.498Z,998.68
2023-03-29T00:21:50.466Z,998.74
2023-03-29T00:22:51.002Z,998.64
2023-03-29T00:23:50.280Z,998.65
2023-03-29T00:24:50.250Z,998.56
2023-03-29T00:25:50.205Z,998.60
2023-03-29T00:26:50.112Z,998.49
2023-03-29T00:29:29.026Z,998.45
2023-03-29T00:30:30.007Z,998.44
2023-03-29T00:31:29.915Z,998.43
2023-03-29T00:32:29.882Z,998.48
2023-03-29T00:33:29.785Z,998.46
2023-03-29T00:34:29.695Z,998.39
2023-03-29T02:56:37.671Z,996.63
2023-03-29T02:57:38.596Z,996.57
2023-03-29T02:58:38.468Z,996.57
2023-03-29T02:59:38.399Z,996.54
2023-03-29T03:00:38.385Z,996.57
2023-03-29T03:01:38.357Z,996.58
2023-03-29T03:02:38.290Z,996.60
2023-03-29T03:03:38.267Z,996.53
2023-03-29T03:04:38.101Z,996.53
2023-03-29T03:05:38.080Z,996.54
2023-03-29T03:06:38.021Z,996.55
2023-03-29T03:07:37.922Z,996.59
2023-03-29T03:08:37.858Z,996.53
2023-03-29T03:16:53.233Z,996.59
2023-03-29T03:17:54.194Z,996.56
2023-03-29T03:21:49.159Z,996.54
2023-03-29T03:21:54.623Z,996.48
2023-03-29T03:22:54.543Z,996.47
2023-03-29T03:23:54.529Z,996.45
2023-03-29T03:24:54.422Z,996.46
2023-03-29T03:25:54.375Z,996.47
2023-03-29T03:26:54.313Z,996.44
2023-03-29T03:27:54.261Z,996.46
2023-03-29T03:28:54.184Z,996.47
2023-03-29T03:29:54.124Z,996.48
2023-03-29T03:30:54.085Z,996.48
2023-03-29T03:31:54.392Z,996.47
2023-03-29T03:32:54.007Z,996.42
2023-03-29T03:33:53.880Z,996.48
2023-03-29T03:34:53.829Z,996.45
2023-03-29T03:35:53.724Z,996.42
2023-03-29T03:36:53.650Z,996.41
2023-03-29T03:37:53.588Z,996.40
2023-03-29T03:38:53.523Z,996.34
2023-03-29T03:39:53.515Z,996.32
2023-03-29T03:40:53.425Z,996.34
2023-03-29T03:41:53.381Z,996.37
2023-03-29T03:42:53.353Z,996.36
2023-03-29T03:43:53.207Z,996.43
2023-03-29T03:44:53.195Z,996.49
2023-03-29T03:45:53.178Z,996.48
2023-03-29T03:46:53.045Z,996.44
2023-03-29T03:47:53.105Z,996.46
2023-03-29T03:48:52.944Z,996.48
2023-03-29T03:49:52.887Z,996.47
2023-03-29T03:50:52.843Z,996.42
2023-03-29T03:51:56.777Z,996.41
2023-03-29T03:52:52.699Z,996.41
2023-03-29T03:53:53.172Z,996.46
2023-03-29T03:54:52.538Z,996.42
2023-03-29T03:55:52.464Z,996.42
2023-03-29T03:56:52.447Z,996.43
2023-03-29T03:57:52.774Z,996.39
2023-03-29T03:58:52.256Z,996.42
2023-03-29T03:59:52.216Z,996.40
2023-03-29T04:00:52.184Z,996.40
2023-03-29T04:01:52.093Z,996.35
2023-03-29T04:02:52.125Z,996.34
2023-03-29T04:03:52.034Z,996.32
2023-03-29T04:04:51.889Z,996.30
2023-03-29T04:05:51.842Z,996.29
2023-03-29T04:06:51.806Z,996.26
2023-03-29T04:07:51.732Z,996.27
2023-03-29T04:08:51.685Z,996.26
2023-03-29T04:09:51.602Z,996.20
2023-03-29T04:10:51.488Z,996.17
2023-03-29T04:11:51.480Z,996.22
2023-03-29T04:12:51.415Z,996.22
2023-03-29T04:13:51.303Z,996.20
2023-03-29T04:14:51.305Z,996.20
2023-03-29T04:15:51.249Z,996.22
2023-03-29T04:16:51.180Z,996.20
2023-03-29T04:17:51.135Z,996.17
2023-03-29T04:18:51.043Z,996.16
2023-03-29T04:19:50.949Z,996.18
2023-03-29T04:20:50.884Z,996.19
2023-03-29T04:21:50.811Z,996.13
2023-03-29T04:22:50.767Z,996.09
2023-03-29T04:23:50.692Z,996.04
2023-03-29T04:24:50.660Z,995.96
2023-03-29T04:25:50.565Z,995.97
2023-03-29T04:26:50.533Z,995.96
2023-03-29T04:27:50.508Z,995.92
2023-03-29T04:28:50.416Z,995.91
2023-03-29T04:29:50.313Z,995.95
2023-03-29T04:30:50.285Z,995.95
2023-03-29T04:31:50.253Z,995.94
2023-03-29T04:32:50.174Z,995.95
2023-03-29T04:33:50.103Z,995.99
2023-03-29T04:34:50.009Z,995.93
2023-03-29T04:35:49.991Z,995.92
2023-03-29T04:36:49.886Z,995.93
2023-03-29T04:37:49.847Z,995.98
2023-03-29T04:38:49.749Z,995.94
2023-03-29T04:39:49.614Z,995.89
2023-03-29T04:40:49.557Z,995.90
2023-03-29T04:41:49.569Z,995.88
2023-03-29T04:42:49.452Z,995.85
2023-03-29T04:43:49.380Z,995.89
2023-03-29T04:44:49.324Z,995.86
2023-03-29T04:45:50.481Z,995.86
2023-03-29T04:46:49.269Z,995.87
2023-03-29T04:47:49.102Z,995.88
2023-03-29T04:48:49.043Z,995.86
2023-03-29T04:49:48.986Z,995.84
2023-03-29T04:50:48.968Z,995.89
2023-03-29T04:51:48.881Z,995.87
2023-03-29T04:52:48.812Z,995.89
2023-03-29T04:53:48.783Z,995.87
2023-03-29T04:54:48.653Z,995.82
2023-03-29T04:55:48.621Z,995.83
2023-03-29T04:56:48.558Z,995.81
2023-03-29T04:57:48.536Z,995.78
2023-03-29T04:58:48.398Z,995.81
2023-03-29T04:59:48.367Z,995.81
2023-03-29T05:00:48.303Z,995.81
2023-03-29T05:01:48.276Z,995.84
2023-03-29T05:02:48.219Z,995.85
2023-03-29T05:03:49.435Z,995.82
2023-03-29T05:04:48.016Z,995.79
2023-03-29T05:05:47.986Z,995.82
2023-03-29T05:06:47.921Z,995.81
2023-03-29T05:07:47.913Z,995.78
2023-03-29T05:08:47.829Z,995.76
2023-03-29T05:09:47.733Z,995.81
2023-03-29T05:10:47.672Z,995.78
2023-03-29T05:11:47.618Z,995.79
2023-03-29T05:12:47.561Z,995.82
2023-03-29T05:13:47.531Z,995.79
2023-03-29T05:14:47.391Z,995.77
2023-03-29T05:15:47.509Z,995.78
2023-03-29T05:16:47.307Z,995.79
2023-03-29T05:17:47.238Z,995.85
2023-03-29T05:18:47.168Z,995.85
2023-03-29T05:19:47.132Z,995.87
2023-03-29T05:20:47.029Z,995.90
2023-03-29T05:24:05.346Z,995.77
2023-03-29T05:25:06.258Z,995.75
2023-03-29T05:26:06.196Z,995.75
2023-03-29T05:27:06.160Z,995.70
2023-03-29T05:28:06.101Z,995.71
2023-03-29T05:29:06.016Z,995.64
2023-03-29T05:30:05.913Z,995.66
2023-03-29T05:31:06.806Z,995.63
2023-03-29T05:32:05.858Z,995.62
2023-03-29T05:33:05.935Z,995.64
2023-03-29T05:34:05.726Z,995.64
2023-03-29T05:35:05.647Z,995.63
2023-03-29T05:36:05.634Z,995.66
2023-03-29T05:37:05.480Z,995.62
2023-03-29T05:38:05.424Z,995.62
2023-03-29T05:39:05.369Z,995.57
2023-03-29T05:40:06.453Z,995.57
2023-03-29T05:41:06.471Z,995.59
2023-03-29T05:42:05.183Z,995.56
2023-03-29T05:43:05.116Z,995.55
2023-03-29T05:44:05.844Z,995.55
2023-03-29T05:45:05.013Z,995.52
2023-03-29T05:46:04.978Z,995.52
2023-03-29T05:47:04.914Z,995.47
2023-03-29T05:48:04.865Z,995.41
2023-03-29T05:49:04.709Z,995.45
2023-03-29T05:50:04.687Z,995.44
2023-03-29T05:51:04.827Z,995.47
2023-03-29T05:52:04.583Z,995.56
2023-03-29T05:53:04.515Z,995.60
2023-03-29T05:54:04.429Z,995.56
2023-03-29T05:55:04.348Z,995.53
2023-03-29T05:56:04.324Z,995.53
2023-03-29T05:57:04.292Z,995.53
2023-03-29T05:58:04.183Z,995.55
2023-03-29T06:01:22.482Z,995.44
2023-03-29T06:02:23.529Z,995.43
2023-03-29T06:03:23.460Z,995.38
2023-03-29T06:04:23.418Z,995.36
2023-03-29T06:05:23.229Z,995.38
2023-03-29T06:06:23.209Z,995.39
2023-03-29T06:07:23.150Z,995.44
2023-03-29T06:08:22.995Z,995.50
2023-03-29T06:09:22.939Z,995.46
2023-03-29T06:10:22.891Z,995.50
2023-03-29T06:11:22.882Z,995.49
2023-03-29T06:12:22.788Z,995.44
2023-03-29T06:13:22.680Z,995.50
2023-03-29T06:14:22.669Z,995.49
2023-03-29T06:15:22.559Z,995.53
2023-03-29T06:16:22.595Z,995.58
2023-03-29T06:17:22.530Z,995.56
2023-03-29T06:18:22.430Z,995.57
2023-03-29T06:19:22.350Z,995.58
2023-03-29T06:20:22.240Z,995.57
2023-03-29T06:21:22.675Z,995.61
2023-03-29T06:22:23.613Z,995.65
2023-03-29T06:23:23.051Z,995.67
2023-03-29T06:24:22.620Z,995.64
2023-03-29T06:25:21.951Z,995.66
2023-03-29T06:26:21.926Z,995.66
2023-03-29T06:27:21.879Z,995.69
2023-03-29T06:28:21.792Z,995.69
2023-03-29T06:29:21.749Z,995.69
2023-03-29T06:30:21.653Z,995.72
2023-03-29T06:31:21.602Z,995.74
2023-03-29T06:32:21.535Z,995.72
2023-03-29T06:33:21.453Z,995.75
2023-03-29T06:34:21.361Z,995.78
2023-03-29T06:35:21.353Z,995.76
2023-03-29T06:39:39.189Z,995.75
2023-03-29T06:40:40.162Z,995.75
2023-03-29T06:41:40.176Z,995.77
2023-03-29T06:42:40.004Z,995.76
2023-03-29T06:43:39.981Z,995.80
2023-03-29T06:44:39.877Z,995.76
2023-03-29T06:45:39.828Z,995.82
2023-03-29T06:46:39.832Z,995.78
2023-03-29T06:47:40.623Z,995.79
2023-03-29T06:48:39.663Z,995.80
2023-03-29T06:49:39.551Z,995.83
2023-03-29T06:50:39.529Z,995.87
2023-03-29T06:51:39.462Z,995.83
2023-03-29T06:52:39.388Z,995.78
2023-03-29T06:53:39.319Z,995.86
2023-03-29T06:54:39.277Z,995.84
2023-03-29T06:55:40.409Z,995.85
2023-03-29T06:56:39.110Z,995.81
2023-03-29T06:57:39.056Z,995.76
2023-03-29T06:58:39.034Z,995.79
2023-03-29T06:59:38.965Z,995.84
2023-03-29T07:00:38.878Z,995.82
2023-03-29T07:01:38.878Z,995.77
2023-03-29T07:02:38.803Z,995.76
2023-03-29T07:03:38.713Z,995.78
2023-03-29T07:04:38.703Z,995.79
2023-03-29T07:05:38.584Z,995.79
2023-03-29T07:06:41.058Z,995.75
2023-03-29T07:07:43.063Z,995.80
2023-03-29T07:08:42.608Z,995.77
2023-03-29T07:09:41.586Z,995.78
2023-03-29T07:10:51.593Z,995.72
2023-03-29T07:11:38.744Z,995.70
2023-03-29T07:12:38.098Z,995.71
2023-03-29T07:13:39.244Z,995.67
2023-03-29T07:14:38.074Z,995.69
2023-03-29T07:15:37.936Z,995.70
2023-03-29T07:16:37.971Z,995.71
2023-03-29T07:17:37.970Z,995.71
2023-03-29T07:18:37.761Z,995.77
2023-03-29T07:19:38.000Z,995.77
2023-03-29T07:20:37.662Z,995.71
2023-03-29T07:21:38.020Z,995.70
2023-03-29T07:22:37.483Z,995.75
2023-03-29T07:23:38.591Z,995.70
2023-03-29T07:24:37.358Z,995.77
2023-03-29T07:25:37.330Z,995.79
2023-03-29T07:26:37.900Z,995.80
2023-03-29T07:27:37.166Z,995.75
2023-03-29T07:28:37.102Z,995.76
2023-03-29T07:29:37.079Z,995.76
2023-03-29T07:30:36.962Z,995.68
2023-03-29T07:34:54.750Z,995.66
2023-03-29T07:35:55.715Z,995.64
2023-03-29T07:36:55.638Z,995.65
2023-03-29T07:37:55.617Z,995.68
2023-03-29T07:38:56.426Z,995.71
2023-03-29T07:39:55.444Z,995.67
2023-03-29T07:40:55.358Z,995.65
2023-03-29T07:41:55.357Z,995.61
2023-03-29T07:42:55.280Z,995.64
2023-03-29T07:43:55.217Z,995.65
2023-03-29T07:44:55.168Z,995.62
2023-03-29T07:45:55.113Z,995.62
2023-03-29T07:46:55.037Z,995.61
2023-03-29T07:47:54.979Z,995.65
2023-03-29T07:48:54.899Z,995.69
2023-03-29T07:49:54.874Z,995.73
2023-03-29T07:50:56.009Z,995.75
2023-03-29T07:51:54.675Z,995.74
2023-03-29T07:52:54.674Z,995.77
2023-03-29T07:53:54.566Z,995.68
2023-03-29T07:54:54.501Z,995.65
2023-03-29T07:55:54.435Z,995.65
2023-03-29T07:56:54.464Z,995.68
2023-03-29T07:57:54.366Z,995.64
2023-03-29T07:58:54.246Z,995.63
2023-03-29T07:59:54.171Z,995.62
2023-03-29T08:00:54.210Z,995.61
2023-03-29T08:02:03.640Z,995.62
2023-03-29T08:02:55.739Z,995.61
2023-03-29T08:03:54.642Z,995.65
2023-03-29T08:04:54.747Z,995.64
2023-03-29T08:05:54.562Z,995.60
2023-03-29T08:06:53.754Z,995.62
2023-03-29T08:07:53.714Z,995.65
2023-03-29T08:15:00.522Z,995.62
2023-03-29T08:15:40.455Z,995.61
2023-03-29T08:16:40.476Z,995.55
2023-03-29T08:17:40.402Z,995.61
2023-03-29T08:18:40.310Z,995.61
2023-03-29T08:19:40.231Z,995.65
2023-03-29T08:20:40.196Z,995.69
2023-03-29T08:21:40.134Z,995.67
2023-03-29T08:22:40.060Z,995.70
2023-03-29T08:23:39.958Z,995.66
2023-03-29T08:24:39.916Z,995.63
2023-03-29T08:25:39.868Z,995.71
2023-03-29T08:26:39.800Z,995.73
2023-03-29T08:27:39.798Z,995.72
2023-03-29T08:28:39.652Z,995.74
2023-03-29T08:29:39.614Z,995.67
2023-03-29T08:35:16.249Z,995.69
2023-03-29T08:36:17.214Z,995.66
2023-03-29T08:37:17.141Z,995.64
2023-03-29T08:38:17.031Z,995.71
2023-03-29T08:39:18.501Z,995.67
2023-03-29T08:40:16.993Z,995.67
2023-03-29T08:41:16.858Z,995.68
2023-03-29T08:42:16.807Z,995.71
2023-03-29T08:43:16.764Z,995.71
2023-03-29T08:44:16.685Z,995.72
2023-03-29T08:45:16.608Z,995.67
2023-03-29T08:46:16.644Z,995.63
2023-03-29T08:47:16.472Z,995.66
2023-03-29T08:48:16.430Z,995.65
2023-03-29T08:49:16.356Z,995.56
2023-03-29T08:50:16.313Z,995.61
2023-03-29T08:51:16.251Z,995.59
2023-03-29T08:52:17.451Z,995.66
2023-03-29T08:53:16.136Z,995.66
2023-03-29T08:54:16.056Z,995.62
2023-03-29T08:55:16.005Z,995.70
2023-03-29T08:56:15.949Z,995.66
2023-03-29T08:57:15.914Z,995.69
2023-03-29T08:58:15.880Z,995.75
2023-03-29T08:59:15.734Z,995.75
2023-03-29T09:00:16.272Z,995.75
2023-03-29T09:01:15.654Z,995.80
2023-03-29T09:02:15.648Z,995.76
2023-03-29T09:03:15.577Z,995.68
2023-03-29T09:04:15.491Z,995.74
2023-03-29T09:05:15.427Z,995.68
2023-03-29T09:06:15.329Z,995.63
2023-03-29T09:07:15.238Z,995.67
2023-03-29T09:08:15.201Z,995.63
2023-03-29T09:09:15.115Z,995.66
2023-03-29T09:10:15.130Z,995.63
2023-03-29T09:11:14.966Z,995.65
2023-03-29T09:12:17.023Z,995.59
2023-03-29T09:13:17.841Z,995.51
2023-03-29T09:14:16.220Z,995.54
2023-03-29T09:15:17.084Z,995.52
2023-03-29T09:16:16.336Z,995.47
2023-03-29T09:17:15.734Z,995.52
2023-03-29T09:18:15.929Z,995.49
2023-03-29T09:19:16.474Z,995.46
2023-03-29T09:20:17.678Z,995.43
2023-03-29T09:21:15.083Z,995.40
2023-03-29T09:22:16.453Z,995.37
2023-03-29T09:23:18.267Z,995.42
2023-03-29T09:24:15.957Z,995.35
2023-03-29T09:25:16.054Z,995.36
2023-03-29T09:26:14.017Z,995.34
2023-03-29T09:27:14.089Z,995.39
2023-03-29T09:28:15.219Z,995.43
2023-03-29T09:29:13.894Z,995.41
2023-03-29T09:30:13.821Z,995.39
2023-03-29T09:31:13.913Z,995.38
2023-03-29T09:32:13.668Z,995.38
2023-03-29T09:33:13.648Z,995.41
2023-03-29T09:34:14.542Z,995.41
2023-03-29T09:35:13.469Z,995.38
2023-03-29T09:36:14.273Z,995.44
2023-03-29T09:37:13.354Z,995.45
2023-03-29T09:38:13.333Z,995.43
2023-03-29T09:39:13.973Z,995.42
2023-03-29T09:40:13.190Z,995.37
2023-03-29T09:41:13.101Z,995.38
2023-03-29T09:42:13.012Z,995.37
2023-03-29T09:43:12.982Z,995.36
2023-03-29T09:44:27.695Z,995.33
2023-03-29T09:45:12.855Z,995.45
2023-03-29T09:46:14.037Z,995.41
2023-03-29T09:47:12.762Z,995.39
2023-03-29T09:48:12.809Z,995.40
2023-03-29T09:49:12.600Z,995.36
2023-03-29T09:50:27.238Z,995.33
2023-03-29T09:51:12.513Z,995.27
2023-03-29T09:52:12.423Z,995.22
2023-03-29T09:53:12.380Z,995.21
2023-03-29T09:54:12.293Z,995.17
2023-03-29T09:55:12.260Z,995.19
2023-03-29T09:56:12.187Z,995.14
2023-03-29T09:57:12.093Z,995.17
2023-03-29T09:58:12.053Z,995.16
2023-03-29T09:59:11.975Z,995.10
2023-03-29T10:00:12.644Z,995.12
2023-03-29T10:01:13.016Z,995.13
2023-03-29T10:02:12.844Z,995.17
2023-03-29T10:03:11.951Z,995.15
2023-03-29T10:09:28.469Z,995.28
2023-03-29T10:10:29.442Z,995.31
2023-03-29T10:11:29.534Z,995.30
2023-03-29T10:12:29.364Z,995.27
2023-03-29T10:13:29.183Z,995.33
2023-03-29T10:14:29.174Z,995.30
2023-03-29T10:15:30.282Z,995.34
2023-03-29T10:16:29.131Z,995.33
2023-03-29T10:17:29.054Z,995.31
2023-03-29T10:18:28.927Z,995.36
2023-03-29T10:19:28.847Z,995.38
2023-03-29T10:20:28.800Z,995.32
2023-03-29T10:21:28.716Z,995.30
2023-03-29T10:22:28.745Z,995.28
2023-03-29T10:23:59.620Z,995.24
2023-03-29T10:24:28.554Z,995.24
2023-03-29T10:25:28.546Z,995.26
2023-03-29T10:26:28.446Z,995.27
2023-03-29T10:27:28.360Z,995.26
2023-03-29T10:28:28.325Z,995.25
2023-03-29T10:29:28.268Z,995.24
2023-03-29T10:30:28.182Z,995.27
2023-03-29T10:31:28.154Z,995.19
2023-03-29T10:32:28.088Z,995.27
2023-03-29T10:33:28.124Z,995.27
2023-03-29T10:34:27.982Z,995.18
2023-03-29T10:35:27.882Z,995.15
2023-03-29T10:36:27.823Z,995.12
2023-03-29T10:37:27.754Z,995.11
2023-03-29T10:38:27.665Z,995.08
2023-03-29T10:39:27.665Z,995.11
2023-03-29T10:40:27.625Z,995.08
2023-03-29T10:44:45.217Z,995.11
2023-03-29T10:45:46.162Z,995.21
2023-03-29T10:46:46.093Z,995.20
2023-03-29T10:47:46.149Z,995.17
2023-03-29T10:48:46.031Z,995.20
2023-03-29T10:49:45.896Z,995.17
2023-03-29T10:50:45.867Z,995.17
2023-03-29T10:51:45.761Z,995.15
2023-03-29T10:52:45.734Z,995.14
2023-03-29T10:53:45.691Z,995.17
2023-03-29T10:54:45.615Z,995.18
2023-03-29T10:55:45.525Z,995.23
2023-03-29T10:56:45.508Z,995.15
2023-03-29T10:57:45.401Z,995.15
2023-03-29T10:58:45.335Z,995.14
2023-03-29T10:59:45.306Z,995.13
2023-03-29T11:00:45.255Z,995.12
2023-03-29T11:01:45.216Z,995.15
2023-03-29T11:02:45.204Z,995.14
2023-03-29T11:03:45.128Z,995.13
2023-03-29T11:04:44.972Z,995.15
2023-03-29T11:05:44.938Z,995.12
2023-03-29T11:06:44.854Z,995.15
2023-03-29T11:07:44.897Z,995.07
2023-03-29T11:08:44.874Z,995.10
2023-03-29T11:10:05.638Z,995.06
2023-03-29T11:10:44.582Z,995.08
2023-03-29T11:11:44.504Z,995.04
2023-03-29T11:12:44.451Z,994.98
2023-03-29T11:13:44.403Z,995.01
2023-03-29T11:14:44.336Z,995.02
2023-03-29T11:15:44.315Z,995.01
2023-03-29T11:16:44.235Z,995.01
2023-03-29T11:17:44.230Z,994.96
2023-03-29T11:21:02.674Z,995.05
2023-03-29T11:22:03.393Z,995.06
2023-03-29T11:23:03.306Z,995.07
2023-03-29T11:24:03.221Z,995.07
2023-03-29T11:25:03.259Z,995.05
2023-03-29T11:26:03.157Z,994.99
2023-03-29T11:27:03.076Z,995.03
2023-03-29T11:28:02.993Z,995.00
2023-03-29T11:29:02.964Z,995.04
2023-03-29T11:30:03.026Z,995.06
2023-03-29T11:31:03.058Z,995.01
2023-03-29T11:32:02.862Z,995.02
2023-03-29T11:33:02.758Z,994.98
2023-03-29T11:34:02.761Z,994.99
2023-03-29T11:35:02.575Z,994.93
2023-03-29T11:36:02.580Z,994.99
2023-03-29T11:37:02.533Z,994.93
2023-03-29T11:38:02.427Z,995.01
2023-03-29T11:39:02.360Z,994.90
2023-03-29T11:40:02.295Z,994.85
2023-03-29T11:41:02.388Z,994.85
2023-03-29T11:42:02.135Z,994.85
2023-03-29T11:43:02.099Z,994.88
2023-03-29T11:44:02.068Z,994.85
2023-03-29T11:45:01.978Z,994.80
2023-03-29T11:46:01.904Z,994.84
2023-03-29T11:47:02.006Z,994.82
2023-03-29T11:48:01.848Z,994.82
2023-03-29T11:49:01.692Z,994.78
2023-03-29T11:50:01.659Z,994.67
2023-03-29T11:51:01.821Z,994.71
2023-03-29T11:52:01.495Z,994.65
2023-03-29T11:53:01.483Z,994.64
2023-03-29T11:54:01.377Z,994.67
2023-03-29T11:55:01.324Z,994.67
2023-03-29T11:56:06.537Z,994.62
2023-03-29T11:57:01.260Z,994.53
2023-03-29T11:58:01.197Z,994.54
2023-03-29T11:59:01.139Z,994.57
2023-03-29T12:00:01.003Z,994.58
2023-03-29T12:01:01.097Z,994.58
2023-03-29T12:02:01.005Z,994.59
2023-03-29T12:03:00.919Z,994.64
2023-03-29T12:04:00.835Z,994.59
2023-03-29T12:05:00.674Z,994.61
2023-03-29T12:06:00.639Z,994.52
2023-03-29T12:07:00.607Z,994.55
2023-03-29T12:08:00.560Z,994.58
2023-03-29T12:09:01.439Z,994.53
2023-03-29T12:10:00.389Z,994.44
2023-03-29T12:11:00.431Z,994.51
2023-03-29T12:12:00.266Z,994.44
2023-03-29T12:13:00.255Z,994.45
2023-03-29T12:14:00.180Z,994.46
2023-03-29T12:15:00.156Z,994.44
2023-03-29T12:16:00.155Z,994.46
2023-03-29T12:17:00.046Z,994.42
2023-03-29T12:17:59.899Z,994.35
2023-03-29T12:18:59.826Z,994.46
2023-03-29T12:19:59.831Z,994.41
2023-03-29T12:20:59.734Z,994.34
2023-03-29T12:21:59.620Z,994.38
2023-03-29T12:22:59.613Z,994.35
2023-03-29T12:23:59.517Z,994.42
2023-03-29T12:24:59.453Z,994.46
2023-03-29T12:25:59.735Z,994.36
2023-03-29T12:26:59.317Z,994.40
2023-03-29T12:27:59.307Z,994.36
2023-03-29T12:28:59.229Z,994.42
2023-03-29T12:29:59.157Z,994.40
2023-03-29T12:30:59.106Z,994.40
2023-03-29T12:31:59.158Z,994.36
2023-03-29T12:32:59.026Z,994.37
2023-03-29T12:33:59.038Z,994.41
2023-03-29T12:34:58.834Z,994.41
2023-03-29T12:35:58.796Z,994.30
2023-03-29T12:36:58.755Z,994.31
2023-03-29T12:37:58.733Z,994.31
2023-03-29T12:38:58.597Z,994.32
2023-03-29T12:39:58.570Z,994.25
2023-03-29T12:40:58.472Z,994.24
2023-03-29T12:41:58.409Z,994.26
2023-03-29T12:42:58.329Z,994.28
2023-03-29T12:43:58.356Z,994.30
2023-03-29T12:44:58.248Z,994.29
2023-03-29T12:45:58.273Z,994.27
2023-03-29T12:46:58.118Z,994.28
2023-03-29T12:47:58.139Z,994.25
2023-03-29T12:48:58.007Z,994.30
2023-03-29T12:49:57.981Z,994.29
2023-03-29T12:50:57.837Z,994.27
2023-03-29T12:51:57.997Z,994.26
2023-03-29T12:52:57.734Z,994.31
2023-03-29T12:53:57.695Z,994.30
2023-03-29T12:54:57.623Z,994.33
2023-03-29T12:55:57.600Z,994.28
2023-03-29T12:56:57.506Z,994.27
2023-03-29T12:57:57.421Z,994.23
2023-03-29T12:58:57.366Z,994.21
2023-03-29T12:59:57.313Z,994.25
2023-03-29T13:00:57.267Z,994.23
2023-03-29T13:01:57.297Z,994.12
2023-03-29T13:02:57.120Z,994.20
2023-03-29T13:03:57.978Z,994.15
2023-03-29T13:04:57.188Z,994.05
2023-03-29T13:05:56.967Z,993.98
2023-03-29T13:06:56.872Z,993.98
2023-03-29T13:07:56.823Z,993.92
2023-03-29T13:08:56.775Z,993.91
2023-03-29T13:09:56.730Z,993.87
2023-03-29T13:10:56.621Z,993.88
2023-03-29T13:11:56.577Z,993.86
2023-03-29T13:12:56.530Z,993.81
2023-03-29T13:13:56.520Z,993.87
2023-03-29T13:14:56.351Z,993.80
2023-03-29T13:15:56.362Z,993.82
2023-03-29T13:16:57.195Z,993.74
2023-03-29T13:17:56.205Z,993.70
2023-03-29T13:18:56.131Z,993.72
2023-03-29T13:19:56.087Z,993.67
2023-03-29T13:20:56.033Z,993.76
2023-03-29T13:21:55.965Z,993.78
2023-03-29T13:22:55.885Z,993.80
2023-03-29T13:23:56.096Z,993.85
2023-03-29T13:24:55.787Z,993.81
2023-03-29T13:25:58.170Z,993.77
2023-03-29T13:26:55.655Z,993.77
2023-03-29T13:27:55.637Z,993.78
2023-03-29T13:28:57.863Z,993.83
2023-03-29T13:29:55.428Z,993.80
2023-03-29T13:30:56.006Z,993.85
2023-03-29T13:31:55.617Z,993.78
2023-03-29T13:32:55.323Z,993.78
2023-03-29T13:33:55.977Z,993.75
2023-03-29T13:34:55.205Z,993.75
2023-03-29T13:35:55.983Z,993.74
2023-03-29T13:36:55.025Z,993.75
2023-03-29T13:37:55.018Z,993.69
2023-03-29T13:38:54.934Z,993.66
2023-03-29T13:39:54.853Z,993.69
2023-03-29T13:40:54.769Z,993.73
2023-03-29T13:41:54.720Z,993.70
2023-03-29T13:42:54.672Z,993.70
2023-03-29T13:46:12.965Z,993.62
2023-03-29T13:47:13.884Z,993.66
2023-03-29T13:48:13.858Z,993.67
2023-03-29T13:49:13.835Z,993.62
2023-03-29T13:50:13.697Z,993.63
2023-03-29T13:51:14.002Z,993.60
2023-03-29T13:52:13.756Z,993.63
2023-03-29T13:53:13.522Z,993.63
2023-03-29T13:54:13.491Z,993.57
2023-03-29T13:55:13.419Z,993.48
2023-03-29T13:56:13.350Z,993.55
2023-03-29T13:57:13.334Z,993.47
2023-03-29T13:58:13.278Z,993.50
2023-03-29T13:59:13.693Z,993.46
2023-03-29T14:00:13.085Z,993.48
2023-03-29T14:01:13.100Z,993.50
2023-03-29T14:02:13.080Z,993.44
2023-03-29T14:05:31.258Z,993.43
2023-03-29T14:06:32.191Z,993.41
2023-03-29T14:07:32.132Z,993.38
2023-03-29T14:08:34.024Z,993.35
2023-03-29T14:09:31.992Z,993.35
2023-03-29T14:10:31.951Z,993.35
2023-03-29T14:11:31.879Z,993.33
2023-03-29T14:12:31.778Z,993.30
2023-03-29T14:13:31.730Z,993.25
2023-03-29T14:14:31.706Z,993.28
2023-03-29T14:15:31.613Z,993.26
2023-03-29T14:16:31.678Z,993.18
2023-03-29T14:17:31.557Z,993.21
2023-03-29T14:18:31.411Z,993.24
2023-03-29T14:19:31.343Z,993.21
2023-03-29T14:20:31.324Z,993.28
2023-03-29T14:21:31.264Z,993.21
2023-03-29T14:24:49.545Z,993.33
2023-03-29T14:25:50.498Z,993.33
2023-03-29T14:26:50.385Z,993.31
2023-03-29T14:27:50.377Z,993.27
2023-03-29T14:28:50.330Z,993.31
2023-03-29T14:29:51.106Z,993.30
2023-03-29T14:30:50.192Z,993.28
2023-03-29T14:31:50.195Z,993.31
2023-03-29T14:32:50.109Z,993.27
2023-03-29T14:33:50.048Z,993.28
2023-03-29T14:34:50.015Z,993.27
2023-03-29T14:35:50.025Z,993.20
2023-03-29T14:36:49.886Z,993.20
2023-03-29T14:37:49.756Z,993.21
2023-03-29T14:38:49.707Z,993.17
2023-03-29T14:39:49.677Z,993.17
2023-03-29T14:40:49.570Z,993.22
2023-03-29T14:41:49.562Z,993.30
2023-03-29T14:42:49.443Z,993.28
2023-03-29T14:43:49.357Z,993.33
2023-03-29T14:44:49.308Z,993.34
2023-03-29T14:45:49.310Z,993.34
2023-03-29T14:46:49.211Z,993.39
2023-03-29T14:47:49.148Z,993.32
2023-03-29T14:48:49.037Z,993.31
2023-03-29T14:49:48.982Z,993.34
2023-03-29T14:50:48.988Z,993.32
2023-03-29T14:51:48.904Z,993.32
2023-03-29T14:52:51.025Z,993.25
2023-03-29T14:53:48.793Z,993.35
2023-03-29T14:54:48.691Z,993.28
2023-03-29T14:55:48.669Z,993.30
2023-03-29T14:56:48.595Z,993.18
2023-03-29T14:57:48.525Z,993.22
2023-03-29T14:58:48.460Z,993.20
2023-03-29T14:59:48.392Z,993.26
2023-03-29T15:00:48.431Z,993.18
2023-03-29T15:01:48.366Z,993.23
2023-03-29T15:02:48.335Z,993.21
2023-03-29T15:03:48.155Z,993.20
2023-03-29T15:04:48.138Z,993.20
2023-03-29T15:05:48.040Z,993.22
2023-03-29T15:06:47.971Z,993.23
2023-03-29T15:07:48.568Z,993.23
2023-03-29T15:08:58.063Z,993.16
2023-03-29T15:09:47.820Z,993.14
2023-03-29T15:10:47.720Z,993.15
2023-03-29T15:11:47.676Z,993.13
2023-03-29T15:12:47.745Z,993.16
2023-03-29T15:13:47.509Z,993.11
2023-03-29T15:14:47.436Z,993.09
2023-03-29T15:15:47.488Z,993.14
2023-03-29T15:16:47.318Z,993.08
2023-03-29T15:19:00.620Z,993.04
2023-03-29T15:19:57.386Z,993.05
2023-03-29T15:20:57.308Z,993.01
2023-03-29T15:21:57.501Z,993.03
2023-03-29T15:22:57.215Z,993.03
2023-03-29T15:23:57.219Z,993.04
2023-03-29T15:24:57.380Z,993.04
2023-03-29T15:25:57.008Z,993.03
2023-03-29T15:26:57.478Z,993.01
2023-03-29T15:27:58.921Z,993.02
2023-03-29T15:28:56.878Z,993.05
2023-03-29T15:29:56.734Z,993.04
2023-03-29T15:31:07.327Z,993.00
2023-03-29T15:31:56.664Z,993.02
2023-03-29T15:32:56.647Z,993.05
2023-03-29T15:33:56.646Z,993.01
2023-03-29T15:34:56.470Z,992.98
2023-03-29T15:35:56.423Z,992.96
2023-03-29T15:36:57.621Z,992.91
2023-03-29T15:37:56.265Z,992.99
2023-03-29T15:38:56.250Z,992.98
2023-03-29T15:39:56.120Z,992.92
2023-03-29T15:40:56.128Z,992.93